Accueil
METAR-TAF:

METAR-TAF

Aéroports :

Luanda, Angola

Aéroport de Luanda-Quatro de Fevereiro

latitude: 08-51S, longitude: 013-14E, altitude: 74 m

Observation

Le bulletin a été fait il y a 1 heure et 11 minutes, à 04:00 UTC
Vent 3 kt de direction variable
Température 19°C
Humidité 94%
Pression 1014 hPa
Visibilité: 7000 m

METAR: FNLU 260400Z VRB03KT 7000 NSC 19/18 Q1014

Heure: 06:11 (05:11 UTC)


TAF: absent

Observations et prévisions météorologiques de plus de 4000 aéroports (messages METAR et TAF).

Les stations disponibles sont représentées par des disques jaunes et rouges sur la carte.

Passer la souris dessus pour voir le nom de la station.

Cliquer dessus pour voir les observations et prévisions météorologiques.

Pour changer de carte: cliquez sur les boutons verts avec une croix noire pour zoomer, sur le bouton vert avec un tiret pour effectuer un zoom arrière, ou sur les flèches vertes pour les cartes adjacentes.


METAR-TAF: